Time;durP1;ratioP1;P1;durP2;ratioP2;P2;SDS_P1;SDS_P2;PMS_P1;PMS_P2;Temp;Humidity;BMP_temperature;BMP_pressure;BME280_temperature;BME280_humidity;BME280_pressure;Samples;Min_cycle;Max_cycle;Signal;HPM_P1;HPM_P2
2022/05/25 00:02:06;;;;;;;4.07;3.78;;;;;;;17.04;87.69;99853.66;4501154;31;20125;-65
2022/05/25 00:04:34;;;;;;;6.78;3.58;;;;;;;17.08;86.92;99859.69;4501232;31;20090;-65
2022/05/25 00:07:02;;;;;;;6.30;3.05;;;;;;;17.17;86.06;99860.12;4501154;31;20447;-66
2022/05/25 00:09:30;;;;;;;5.25;3.58;;;;;;;17.09;85.87;99854.28;4500877;31;20552;-66
2022/05/25 00:11:57;;;;;;;3.97;3.50;;;;;;;17.08;86.48;99852.56;4500788;31;20463;-65
2022/05/25 00:14:24;;;;;;;5.53;3.58;;;;;;;17.01;86.06;99847.59;4501062;31;20582;-65
2022/05/25 00:16:51;;;;;;;3.90;3.60;;;;;;;16.95;85.70;99840.75;4486281;31;20147;-65
2022/05/25 00:22:04;;;;;;;3.97;3.37;;;;;;;16.87;85.65;99848.25;4501123;31;20159;-65
2022/05/25 00:24:31;;;;;;;4.18;3.70;;;;;;;16.82;85.76;99847.56;4501103;31;20110;-65
2022/05/25 00:26:58;;;;;;;4.97;3.58;;;;;;;16.77;85.78;99842.47;4500923;31;20172;-65
2022/05/25 00:29:26;;;;;;;4.68;3.72;;;;;;;16.73;84.80;99838.19;4500806;31;20134;-65
2022/05/25 00:31:53;;;;;;;5.60;3.35;;;;;;;16.68;85.40;99849.06;4500864;31;20581;-65
2022/05/25 00:34:20;;;;;;;5.12;3.55;;;;;;;16.64;85.29;99857.22;4500711;31;20135;-65
2022/05/25 00:36:47;;;;;;;4.93;3.42;;;;;;;16.65;85.54;99848.34;4500740;31;20083;-66
2022/05/25 00:39:14;;;;;;;7.55;3.50;;;;;;;16.61;85.77;99849.41;4500653;31;20163;-65
2022/05/25 00:41:42;;;;;;;3.83;3.45;;;;;;;16.62;85.78;99857.31;4500602;31;20135;-65
2022/05/25 00:44:09;;;;;;;5.35;3.05;;;;;;;16.60;85.18;99850.31;4500815;31;20087;-66
2022/05/25 00:46:38;;;;;;;4.43;3.28;;;;;;;16.55;85.97;99839.91;4500610;31;20126;-65
2022/05/25 00:49:21;;;;;;;3.87;3.58;;;;;;;16.48;88.93;99851.75;4500482;31;20088;-65
2022/05/25 00:52:00;;;;;;;4.00;3.70;;;;;;;16.46;88.16;99856.25;4500658;31;20175;-65
2022/05/25 00:54:33;;;;;;;4.25;3.85;;;;;;;16.45;88.83;99859.88;4500538;31;20348;-65
2022/05/25 00:57:04;;;;;;;3.47;3.17;;;;;;;16.40;88.91;99859.22;4500504;31;20107;-65
2022/05/25 01:00:02;;;;;;;4.62;3.92;;;;;;;16.41;88.54;99860.94;4500552;31;20589;-65
2022/05/25 01:02:33;;;;;;;3.80;3.40;;;;;;;16.35;89.29;99859.41;4490080;31;20107;-65
2022/05/25 01:05:00;;;;;;;3.83;3.42;;;;;;;16.28;89.71;99859.75;4500328;31;20102;-65
2022/05/25 01:08:05;;;;;;;3.72;3.42;;;;;;;16.19;89.79;99855.69;4500313;31;20138;-66
2022/05/25 01:11:04;;;;;;;3.62;3.33;;;;;;;16.12;89.62;99855.09;4500204;31;20155;-65
2022/05/25 01:14:02;;;;;;;3.78;3.35;;;;;;;16.18;88.58;99854.84;4456218;31;20125;-65
2022/05/25 01:16:51;;;;;;;4.07;3.70;;;;;;;16.13;89.14;99855.97;4500346;31;20076;-65
2022/05/25 01:19:31;;;;;;;3.37;3.12;;;;;;;16.19;88.73;99863.66;4500212;31;20147;-65
2022/05/25 01:22:14;;;;;;;9.95;3.62;;;;;;;16.26;87.54;99862.47;4502520;31;20454;-65
2022/05/25 01:25:26;;;;;;;6.25;3.55;;;;;;;16.32;88.06;99858.66;4502521;31;20418;-65
2022/05/25 01:27:54;;;;;;;4.10;3.72;;;;;;;16.39;88.25;99855.66;4499557;31;20123;-65
2022/05/25 01:30:28;;;;;;;4.00;3.67;;;;;;;16.37;88.20;99859.34;4502441;31;20357;-65
2022/05/25 01:32:59;;;;;;;5.78;3.60;;;;;;;16.38;86.64;99864.59;4502365;31;20160;-65
2022/05/25 01:35:42;;;;;;;4.70;4.30;;;;;;;16.33;87.32;99874.56;4502606;31;20481;-65
2022/05/25 01:38:27;;;;;;;7.47;4.07;;;;;;;16.32;87.22;99872.81;4502632;31;20127;-65
2022/05/25 01:40:59;;;;;;;7.55;3.70;;;;;;;16.32;87.92;99864.84;4502461;31;20595;-65
2022/05/25 01:43:47;;;;;;;6.90;3.37;;;;;;;16.38;85.79;99866.38;4502595;31;20145;-65
2022/05/25 01:46:22;;;;;;;4.12;3.10;;;;;;;16.37;86.51;99862.00;4502424;31;20122;-66
2022/05/25 01:48:54;;;;;;;7.33;3.80;;;;;;;16.35;87.08;99870.03;4502339;31;20068;-66
2022/05/25 01:51:30;;;;;;;9.57;3.72;;;;;;;16.42;87.13;99871.50;4502341;31;20072;-65
2022/05/25 01:54:01;;;;;;;4.25;3.95;;;;;;;16.34;87.89;99876.28;4502361;31;20577;-65
2022/05/25 01:56:32;;;;;;;4.55;4.07;;;;;;;16.25;89.13;99874.91;4502273;31;20091;-65
2022/05/25 01:59:03;;;;;;;4.90;3.90;;;;;;;16.24;89.64;99865.19;4502477;31;20488;-65
2022/05/25 02:01:30;;;;;;;6.95;3.87;;;;;;;16.27;89.45;99869.50;4502365;31;20084;-65
2022/05/25 02:06:46;;;;;;;4.37;3.80;;;;;;;16.33;87.93;99871.06;4502223;31;20092;-65
2022/05/25 02:09:25;;;;;;;5.03;3.37;;;;;;;16.30;88.03;99861.41;4502206;31;20720;-65
2022/05/25 02:12:16;;;;;;;5.12;3.83;;;;;;;16.30;88.00;99869.38;4501972;31;20133;-65
2022/05/25 02:14:55;;;;;;;3.70;3.40;;;;;;;16.31;88.04;99868.44;4502167;31;20159;-65
2022/05/25 02:17:46;;;;;;;5.00;3.87;;;;;;;16.32;87.26;99858.66;4502167;31;20118;-65
2022/05/25 02:20:25;;;;;;;4.12;3.55;;;;;;;16.27;86.68;99864.19;4502088;31;20514;-65
2022/05/25 02:23:03;;;;;;;5.35;3.90;;;;;;;16.27;86.68;99869.50;4502125;31;20435;-65
2022/05/25 02:25:37;;;;;;;4.18;3.78;;;;;;;16.18;86.99;99862.81;4502029;31;20096;-65
2022/05/25 02:28:16;;;;;;;4.55;3.58;;;;;;;16.12;87.82;99863.06;4502423;31;20088;-65
2022/05/25 02:30:49;;;;;;;4.78;3.90;;;;;;;16.14;87.28;99863.00;4502245;31;20064;-66
2022/05/25 02:33:28;;;;;;;5.25;3.78;;;;;;;16.02;88.47;99851.09;4502189;31;20091;-65
2022/05/25 02:35:58;;;;;;;4.90;4.20;;;;;;;15.99;89.02;99852.09;4501888;31;20110;-65
2022/05/25 02:38:26;;;;;;;7.30;3.67;;;;;;;15.95;88.76;99847.84;4501922;31;20095;-65
2022/05/25 02:41:05;;;;;;;4.00;3.72;;;;;;;15.90;89.37;99846.28;4501939;31;20138;-65
2022/05/25 02:43:37;;;;;;;6.85;3.75;;;;;;;15.85;90.06;99854.47;4502143;31;20167;-65
2022/05/25 02:46:06;;;;;;;5.20;4.30;;;;;;;15.82;90.09;99849.28;4502031;31;20087;-66
2022/05/25 02:48:35;;;;;;;3.75;3.22;;;;;;;15.82;90.05;99848.41;4501856;31;20114;-65
2022/05/25 02:51:03;;;;;;;7.62;3.87;;;;;;;15.75;90.67;99859.28;4501901;31;20118;-65
2022/05/25 02:53:30;;;;;;;7.18;4.07;;;;;;;15.63;91.99;99846.50;4501839;31;20088;-65
2022/05/25 02:55:57;;;;;;;6.55;3.70;;;;;;;15.64;92.59;99850.88;4501737;31;20121;-65
2022/05/25 02:58:24;;;;;;;5.72;4.25;;;;;;;15.65;91.96;99851.72;4501783;31;20092;-65
2022/05/25 03:00:52;;;;;;;4.35;3.95;;;;;;;15.68;91.49;99849.84;4501765;31;20100;-65
2022/05/25 03:03:19;;;;;;;5.70;3.85;;;;;;;15.63;91.93;99853.59;4501846;31;20133;-65
2022/05/25 03:05:47;;;;;;;6.57;4.28;;;;;;;15.62;91.94;99847.44;4501689;31;20476;-65
2022/05/25 03:08:15;;;;;;;5.95;4.35;;;;;;;15.58;92.03;99843.16;4501876;31;20160;-65
2022/05/25 03:10:42;;;;;;;5.78;3.87;;;;;;;15.59;91.98;99844.03;4501973;31;20108;-66
2022/05/25 03:13:10;;;;;;;4.72;3.78;;;;;;;15.60;91.58;99853.72;4501534;31;20534;-65
2022/05/25 03:15:38;;;;;;;5.82;3.53;;;;;;;15.61;90.67;99852.78;4501676;31;20527;-65
2022/05/25 03:18:06;;;;;;;3.97;3.58;;;;;;;15.64;90.92;99856.19;4501610;31;20434;-65
2022/05/25 03:20:33;;;;;;;5.22;3.83;;;;;;;15.73;89.81;99860.31;4501605;31;20079;-65
2022/05/25 03:23:00;;;;;;;6.95;3.83;;;;;;;15.67;89.69;99850.78;4501670;31;20388;-65
2022/05/25 03:25:28;;;;;;;5.28;4.10;;;;;;;15.67;89.56;99845.47;4501700;31;20185;-65
2022/05/25 03:27:55;;;;;;;4.95;3.40;;;;;;;15.68;89.63;99852.50;4501533;31;20497;-65
2022/05/25 03:30:22;;;;;;;4.18;3.47;;;;;;;15.76;88.35;99855.72;4501596;31;20079;-65
2022/05/25 03:32:51;;;;;;;4.12;3.72;;;;;;;15.75;88.10;99861.94;4501514;31;20567;-65
2022/05/25 03:35:18;;;;;;;4.93;3.58;;;;;;;15.80;87.62;99863.56;4501446;31;20511;-65
2022/05/25 03:37:45;;;;;;;3.65;3.28;;;;;;;15.82;87.12;99872.31;4501560;31;20605;-65
2022/05/25 03:40:14;;;;;;;3.85;3.55;;;;;;;15.87;86.00;99867.69;4501548;31;20110;-65
2022/05/25 03:42:44;;;;;;;6.32;3.72;;;;;;;15.99;84.36;99867.16;4501052;31;20100;-65
2022/05/25 03:45:14;;;;;;;4.47;3.67;;;;;;;16.02;84.99;99869.69;4501472;31;20163;-65
2022/05/25 03:47:47;;;;;;;4.45;3.60;;;;;;;16.08;84.05;99882.75;4501382;31;20135;-65
2022/05/25 03:50:16;;;;;;;3.95;3.60;;;;;;;16.13;84.16;99883.41;4505108;31;20164;-65
2022/05/25 03:52:43;;;;;;;12.60;3.72;;;;;;;16.18;84.07;99888.50;4501893;31;20507;-65
2022/05/25 03:55:10;;;;;;;7.22;4.72;;;;;;;16.29;83.72;99896.03;4501109;31;20138;-65
2022/05/25 03:57:38;;;;;;;8.18;4.05;;;;;;;16.28;84.27;99891.63;4498565;31;20144;-65
2022/05/25 04:00:06;;;;;;;5.65;3.70;;;;;;;16.32;nan;99890.56;4499976;31;20118;-65
2022/05/25 04:02:35;;;;;;;9.45;3.20;;;;;;;16.43;83.81;99893.63;4501950;31;20111;-65
2022/05/25 04:05:08;;;;;;;3.37;3.08;;;;;;;16.51;82.95;99896.81;4501514;31;20092;-65
2022/05/25 04:07:42;;;;;;;4.43;3.47;;;;;;;16.72;82.65;99901.19;4501945;31;20187;-65
2022/05/25 04:10:13;;;;;;;4.07;3.70;;;;;;;16.83;81.83;99898.09;4501747;31;20106;-65
2022/05/25 04:12:42;;;;;;;3.67;3.08;;;;;;;16.89;81.05;99897.81;4500306;31;20113;-65
2022/05/25 04:15:13;;;;;;;7.00;3.20;;;;;;;17.06;79.92;99899.66;4501141;31;20113;-65
2022/05/25 04:17:40;;;;;;;3.17;2.95;;;;;;;17.03;80.66;99898.94;4486264;31;20104;-65
2022/05/25 04:20:08;;;;;;;3.62;2.90;;;;;;;17.17;79.69;99897.41;4500691;31;20121;-65
2022/05/25 04:22:36;;;;;;;4.62;3.47;;;;;;;17.25;78.69;99907.69;4500838;31;20412;-65
2022/05/25 04:25:07;;;;;;;6.75;3.12;;;;;;;17.32;78.97;99906.47;4500853;31;20122;-65
2022/05/25 04:27:35;;;;;;;5.87;2.80;;;;;;;17.34;78.59;99917.03;4500642;31;20208;-65
2022/05/25 04:30:04;;;;;;;4.90;3.00;;;;;;;17.40;78.83;99924.72;4500762;31;20118;-66
2022/05/25 04:32:32;;;;;;;3.62;3.35;;;;;;;17.42;78.30;99918.41;4500693;31;20087;-65
2022/05/25 04:34:59;;;;;;;6.15;3.05;;;;;;;17.42;78.33;99921.06;4500344;31;20092;-65
2022/05/25 04:40:12;;;;;;;12.07;3.37;;;;;;;17.34;78.50;99914.34;4500617;31;20205;-66
2022/05/25 04:42:40;;;;;;;5.53;4.00;;;;;;;17.35;78.90;99908.97;4500247;31;20407;-65
2022/05/25 04:45:09;;;;;;;6.28;2.92;;;;;;;17.34;78.58;99911.69;4500650;31;20122;-65
2022/05/25 04:47:40;;;;;;;4.35;2.65;;;;;;;17.16;79.80;99902.78;4500630;31;20103;-65
2022/05/25 04:50:15;;;;;;;6.03;3.22;;;;;;;17.28;79.57;99915.53;4500252;31;20142;-65
2022/05/25 04:52:43;;;;;;;8.77;3.47;;;;;;;17.23;79.82;99916.66;4500479;31;20159;-66
2022/05/25 04:57:19;;;;;;;4.18;3.17;;;;;;;17.27;80.12;99915.59;4486086;31;20174;-66
2022/05/25 04:57:59;;;;;;;6.05;3.42;;;;;;;17.42;78.73;99933.50;4501715;31;20553;-65
2022/05/25 05:00:28;;;;;;;3.20;2.92;;;;;;;17.54;78.04;99927.59;4502126;31;20428;-65
2022/05/25 05:02:55;;;;;;;35.30;4.20;;;;;;;17.61;78.84;99928.19;4501881;31;20092;-65
2022/05/25 05:05:22;;;;;;;28.02;3.83;;;;;;;17.62;78.33;99929.91;4502539;31;20099;-66
2022/05/25 05:07:50;;;;;;;10.70;3.47;;;;;;;17.87;76.24;99934.91;4502626;31;20468;-66
2022/05/25 05:10:17;;;;;;;12.13;3.65;;;;;;;17.99;76.94;99931.66;4502588;31;20425;-65
2022/05/25 05:12:44;;;;;;;7.35;3.12;;;;;;;18.10;76.14;99926.66;4501692;31;20153;-65
2022/05/25 05:15:11;;;;;;;17.95;3.35;;;;;;;18.43;74.50;99941.03;4501732;31;20111;-65
2022/05/25 05:17:38;;;;;;;50.72;4.20;;;;;;;18.36;73.51;99946.66;4501551;31;20504;-65
2022/05/25 05:20:07;;;;;;;9.20;2.83;;;;;;;18.58;72.67;99946.41;4501486;31;20886;-65
2022/05/25 05:22:35;;;;;;;3.42;3.12;;;;;;;18.68;72.75;99954.81;4501471;31;20117;-66
2022/05/25 05:25:03;;;;;;;9.88;3.60;;;;;;;18.79;72.57;99952.47;4502085;31;20506;-66
2022/05/25 05:27:30;;;;;;;6.95;3.37;;;;;;;18.73;72.37;99954.59;4501625;31;20183;-66
2022/05/25 05:30:01;;;;;;;9.43;3.70;;;;;;;18.64;72.28;99956.78;4502002;31;20514;-66
2022/05/25 05:32:30;;;;;;;9.65;4.37;;;;;;;18.74;71.96;99959.88;4501523;31;20572;-66
2022/05/25 05:34:58;;;;;;;7.95;4.82;;;;;;;18.87;70.73;99966.31;4500903;31;20163;-66
2022/05/25 05:37:54;;;;;;;9.32;4.12;;;;;;;18.86;71.35;99972.56;4489416;31;20095;-65
2022/05/25 05:40:22;;;;;;;9.27;3.60;;;;;;;19.03;71.48;99970.81;4494743;31;20083;-66
2022/05/25 05:42:52;;;;;;;12.98;3.50;;;;;;;19.10;70.71;99970.41;4489519;31;20176;-66
2022/05/25 05:45:23;;;;;;;13.85;3.65;;;;;;;19.15;69.50;99970.13;4480406;31;20497;-66
2022/05/25 05:48:01;;;;;;;3.42;3.12;;;;;;;19.33;69.57;99969.16;4486653;31;20509;-66
2022/05/25 05:50:29;;;;;;;6.32;3.12;;;;;;;19.51;68.47;99977.13;4486004;31;20148;-66
2022/05/25 05:52:57;;;;;;;7.95;3.75;;;;;;;19.37;69.70;99983.22;4486239;31;20137;-66
2022/05/25 05:55:24;;;;;;;6.18;3.22;;;;;;;19.43;69.59;99990.88;4486230;31;20165;-65
2022/05/25 05:57:51;;;;;;;5.18;2.78;;;;;;;19.51;67.87;99988.66;4488849;31;20130;-65
2022/05/25 06:00:19;;;;;;;5.65;3.12;;;;;;;19.66;67.61;99989.66;4490111;31;20118;-66
2022/05/25 06:02:46;;;;;;;5.68;3.03;;;;;;;19.68;68.28;99990.44;4486585;31;20110;-65
2022/05/25 06:05:13;;;;;;;6.45;3.10;;;;;;;19.76;67.80;99990.00;4486034;31;20165;-65
2022/05/25 06:07:40;;;;;;;3.40;2.90;;;;;;;19.64;67.65;99993.34;4487085;31;20118;-65
2022/05/25 06:10:09;;;;;;;7.30;3.05;;;;;;;19.63;67.58;99991.63;4502529;31;20164;-65
2022/05/25 06:12:43;;;;;;;4.62;3.00;;;;;;;19.35;69.65;99990.44;4502137;31;20113;-65
2022/05/25 06:20:49;;;;;;;3.83;2.92;;;;;;;19.06;70.11;99995.53;4486446;31;20154;-65
2022/05/25 06:23:16;;;;;;;3.87;2.40;;;;;;;19.12;70.65;99999.72;4486812;31;20099;-65
2022/05/25 06:25:44;;;;;;;5.43;2.80;;;;;;;19.36;69.44;100000.16;4486367;31;20112;-65
2022/05/25 06:28:11;;;;;;;5.37;2.65;;;;;;;19.55;69.22;99997.38;4486211;31;20516;-65
2022/05/25 06:30:38;;;;;;;5.55;2.92;;;;;;;19.69;68.91;99999.31;4489820;31;20113;-65
2022/05/25 06:33:06;;;;;;;4.12;3.12;;;;;;;19.80;68.37;100005.78;4486528;31;20088;-65
2022/05/25 06:35:34;;;;;;;3.75;3.20;;;;;;;19.91;67.07;100013.19;4496802;31;20691;-65
2022/05/25 06:38:03;;;;;;;4.72;3.03;;;;;;;20.04;66.88;100008.03;4502136;31;20584;-65
2022/05/25 06:40:31;;;;;;;4.07;3.00;;;;;;;20.02;68.43;99991.19;4502090;31;20163;-65
2022/05/25 06:42:58;;;;;;;14.43;3.20;;;;;;;20.15;68.58;99991.38;4502565;31;20140;-65
2022/05/25 06:45:26;;;;;;;3.87;3.17;;;;;;;20.30;67.76;99993.13;4502442;31;20142;-65
2022/05/25 06:47:53;;;;;;;3.90;3.00;;;;;;;20.38;66.80;99990.00;4494610;31;20813;-65
2022/05/25 06:50:21;;;;;;;16.10;3.25;;;;;;;20.47;66.63;99997.50;4501880;31;20095;-65
2022/05/25 06:52:48;;;;;;;9.18;2.83;;;;;;;20.53;67.38;99991.84;4502111;31;20092;-65
2022/05/25 06:55:15;;;;;;;10.88;3.87;;;;;;;20.58;66.84;99994.22;4501432;31;20183;-65
2022/05/25 06:57:42;;;;;;;5.37;2.85;;;;;;;20.65;65.76;99996.44;4499340;31;20095;-65
2022/05/25 07:00:10;;;;;;;10.02;3.28;;;;;;;20.77;65.52;99997.50;4502499;31;20091;-66
2022/05/25 07:02:37;;;;;;;8.63;3.10;;;;;;;20.89;65.61;99999.47;4502183;31;20141;-65
2022/05/25 07:05:05;;;;;;;11.85;3.72;;;;;;;20.95;66.02;100000.91;4479170;31;20108;-65
2022/05/25 07:07:33;;;;;;;5.28;2.92;;;;;;;21.15;64.65;100007.72;4485228;31;20104;-65
2022/05/25 07:10:00;;;;;;;4.07;3.20;;;;;;;21.13;63.58;100013.19;4497751;31;20742;-65
2022/05/25 07:12:31;;;;;;;6.15;3.10;;;;;;;20.62;65.58;100020.72;4492849;31;20909;-65
2022/05/25 07:14:59;;;;;;;7.47;3.22;;;;;;;20.76;65.90;100012.72;4491218;31;20711;-66
2022/05/25 07:17:27;;;;;;;6.20;3.58;;;;;;;21.14;65.04;100011.38;4501087;31;20822;-65
2022/05/25 07:19:54;;;;;;;7.72;3.25;;;;;;;21.30;65.25;100001.41;4497326;31;20757;-66
2022/05/25 07:22:21;;;;;;;9.38;3.05;;;;;;;21.43;64.37;100001.53;4494236;31;20138;-65
2022/05/25 07:24:48;;;;;;;9.48;3.50;;;;;;;21.45;63.82;99994.28;4501971;31;20108;-66
2022/05/25 07:27:15;;;;;;;14.95;3.72;;;;;;;21.60;64.33;99995.13;4501183;31;20107;-65
2022/05/25 07:29:43;;;;;;;9.45;3.45;;;;;;;21.70;64.78;100009.66;4501342;31;20079;-65
2022/05/25 07:32:12;;;;;;;6.57;4.15;;;;;;;21.84;63.68;100006.09;4501606;31;20364;-65
2022/05/25 07:34:43;;;;;;;7.95;3.97;;;;;;;21.23;64.31;100006.28;4502210;31;20541;-66
2022/05/25 07:37:18;;;;;;;12.35;4.20;;;;;;;21.38;65.50;100009.87;4501980;31;20103;-66
2022/05/25 07:39:52;;;;;;;7.53;4.12;;;;;;;21.53;64.28;100008.03;4502091;31;20178;-66
2022/05/25 07:42:22;;;;;;;12.55;8.05;;;;;;;21.68;65.52;100012.41;4501969;31;20137;-66
2022/05/25 07:44:57;;;;;;;10.05;5.12;;;;;;;21.96;63.84;100014.19;4487044;31;20522;-65
2022/05/25 07:47:27;;;;;;;8.32;4.60;;;;;;;22.15;63.38;100005.81;4500705;31;20091;-66
2022/05/25 07:49:55;;;;;;;13.38;4.18;;;;;;;22.09;63.34;100005.34;4499036;31;20107;-66
2022/05/25 07:52:25;;;;;;;7.37;4.12;;;;;;;22.14;62.90;100022.88;4500976;31;20155;-65
2022/05/25 07:54:54;;;;;;;7.85;4.28;;;;;;;21.92;63.36;100018.03;4494992;31;20746;-65
2022/05/25 07:57:21;;;;;;;22.40;5.18;;;;;;;21.69;65.11;100011.44;4500816;31;20134;-65
2022/05/25 07:59:48;;;;;;;9.68;4.15;;;;;;;;;;4501057;31;20083;-65
2022/05/25 08:07:52;;;;;;;10.02;4.43;;;;;;;21.93;64.89;100014.38;4488871;31;20131;-65
2022/05/25 08:10:23;;;;;;;15.70;7.50;;;;;;;22.28;64.43;100013.94;4485588;31;20209;-66
2022/05/25 08:12:53;;;;;;;9.63;4.90;;;;;;;22.06;64.29;100016.28;4485456;31;20161;-66
2022/05/25 08:15:21;;;;;;;14.57;4.97;;;;;;;22.08;64.50;100020.56;4488333;31;20151;-65
2022/05/25 08:17:49;;;;;;;7.93;5.10;;;;;;;22.39;63.56;100022.12;4498573;31;20130;-65
2022/05/25 08:20:17;;;;;;;8.02;4.40;;;;;;;22.11;63.64;100014.16;4473288;31;20782;-65
2022/05/25 08:22:44;;;;;;;6.82;4.82;;;;;;;22.29;65.03;100012.09;4490079;31;20127;-65
2022/05/25 08:25:14;;;;;;;10.60;4.50;;;;;;;22.67;63.56;100015.75;4496155;31;20107;-66
2022/05/25 08:27:41;;;;;;;10.25;5.22;;;;;;;23.12;61.66;100008.22;4500355;31;20099;-66
2022/05/25 08:30:13;;;;;;;18.98;5.40;;;;;;;23.30;61.60;100010.59;4503202;31;20108;-66
2022/05/25 08:32:40;;;;;;;7.00;4.80;;;;;;;22.75;62.42;100020.59;4503436;31;20110;-66
2022/05/25 08:35:08;;;;;;;11.57;4.80;;;;;;;23.11;61.19;100011.88;4503342;31;20096;-66
2022/05/25 08:37:36;;;;;;;10.15;4.95;;;;;;;23.33;61.36;100010.37;4502879;31;20405;-66
2022/05/25 08:40:04;;;;;;;9.40;4.28;;;;;;;23.08;61.58;100008.56;4500802;31;20156;-66
2022/05/25 08:42:38;;;;;;;4.72;4.22;;;;;;;23.04;61.51;100004.31;4502484;31;20096;-66
2022/05/25 08:45:07;;;;;;;5.20;4.35;;;;;;;23.11;61.58;100003.81;4502570;31;20146;-66
2022/05/25 08:47:35;;;;;;;8.35;4.50;;;;;;;23.63;61.52;99996.53;4497706;31;20746;-66
2022/05/25 08:50:03;;;;;;;10.50;5.70;;;;;;;23.93;59.78;100000.72;4495393;31;20099;-66
2022/05/25 08:52:34;;;;;;;8.93;4.97;;;;;;;23.87;59.22;100006.53;4484530;31;20146;-66
2022/05/25 08:55:07;;;;;;;6.82;5.12;;;;;;;23.66;60.10;100012.47;4502069;31;20159;-66
2022/05/25 08:57:43;;;;;;;9.43;4.70;;;;;;;23.67;60.05;100000.75;4501972;31;20155;-66
2022/05/25 09:00:13;;;;;;;6.40;4.55;;;;;;;24.01;59.90;100003.69;4502973;31;20091;-66
2022/05/25 09:02:45;;;;;;;6.82;4.87;;;;;;;24.16;58.80;100002.53;4502003;31;20750;-65
2022/05/25 09:05:25;;;;;;;6.18;5.30;;;;;;;24.55;57.33;100003.25;4502202;31;20100;-65
2022/05/25 09:08:08;;;;;;;12.05;5.55;;;;;;;24.37;57.18;100002.75;4501538;31;20090;-66
2022/05/25 09:10:42;;;;;;;9.77;5.37;;;;;;;24.08;58.38;100007.63;4500694;31;20076;-66
2022/05/25 09:13:23;;;;;;;6.47;5.30;;;;;;;23.92;60.12;100004.34;4483432;31;20107;-66
2022/05/25 09:18:59;;;;;;;9.10;4.68;;;;;;;24.48;59.19;99994.75;4497292;31;20778;-66
2022/05/25 09:21:51;;;;;;;5.40;4.80;;;;;;;25.25;56.54;99997.78;4502104;31;20103;-66
2022/05/25 09:24:24;;;;;;;14.68;4.68;;;;;;;25.20;57.04;99994.63;4502809;31;20148;-66
2022/05/25 09:26:52;;;;;;;11.15;4.85;;;;;;;25.77;55.47;100003.56;4495110;31;20152;-66
2022/05/25 09:29:22;;;;;;;12.32;4.93;;;;;;;25.68;55.02;99997.03;4486788;31;20238;-66
2022/05/25 09:32:10;;;;;;;9.25;5.03;;;;;;;25.56;56.29;100003.44;4487048;31;20114;-66
2022/05/25 09:35:06;;;;;;;15.20;5.10;;;;;;;25.74;55.27;99998.41;4486913;31;20175;-66
2022/05/25 09:37:55;;;;;;;9.45;5.60;;;;;;;25.88;54.07;100006.25;4486376;31;20096;-66
2022/05/25 09:40:39;;;;;;;10.18;6.68;;;;;;;25.03;56.51;100006.69;4485627;31;20130;-65
2022/05/25 09:43:10;;;;;;;8.88;6.12;;;;;;;25.21;56.11;100001.72;4497764;31;20084;-66
2022/05/25 09:45:53;;;;;;;6.95;5.57;;;;;;;25.40;55.25;99998.41;4490739;31;20517;-66
2022/05/25 09:48:29;;;;;;;10.18;5.47;;;;;;;25.39;55.90;99996.69;4497507;31;20092;-65
2022/05/25 09:50:59;;;;;;;;;;;;;;;26.07;54.74;99996.62;4487660;31;20100;-66
2022/05/25 09:53:36;;;;;;;11.98;5.20;;;;;;;26.87;51.48;100001.62;4491342;31;19979;-66
2022/05/25 09:56:09;;;;;;;8.40;4.62;;;;;;;27.61;49.74;100002.31;4487068;31;20096;-65
2022/05/25 09:58:43;;;;;;;5.78;4.65;;;;;;;27.96;49.30;99992.91;4492411;31;20092;-65
2022/05/25 10:01:24;;;;;;;5.40;4.97;;;;;;;28.12;48.36;99997.78;4486681;31;20163;-66
2022/05/25 10:03:52;;;;;;;7.57;5.15;;;;;;;26.97;50.83;100018.78;4494411;31;20092;-66
2022/05/25 10:06:20;;;;;;;7.80;4.50;;;;;;;26.61;51.97;100018.22;4502429;31;20175;-66
2022/05/25 10:09:10;;;;;;;5.32;4.80;;;;;;;26.51;51.95;100002.91;4502672;31;20079;-66
2022/05/25 10:11:52;;;;;;;7.32;4.80;;;;;;;26.09;53.46;100003.63;4502896;31;20206;-65
2022/05/25 10:14:25;;;;;;;9.75;5.57;;;;;;;26.54;52.36;99990.00;4502969;31;20079;-66
2022/05/25 10:17:14;;;;;;;6.85;4.90;;;;;;;26.32;52.88;99992.75;4472385;31;20206;-66
2022/05/25 10:19:51;;;;;;;6.85;6.12;;;;;;;26.77;52.47;99995.28;4486829;31;20100;-66
2022/05/25 10:22:46;;;;;;;6.47;5.20;;;;;;;26.37;52.79;99987.84;4486595;31;20133;-65
2022/05/25 10:25:26;;;;;;;14.93;5.50;;;;;;;27.35;51.24;99990.22;4486721;31;20110;-66
2022/05/25 10:27:56;;;;;;;7.50;5.35;;;;;;;27.70;49.54;99983.53;4486445;31;20156;-66
2022/05/25 10:36:47;;;;;;;8.15;5.97;;;;;;;27.06;51.86;99984.66;4494315;31;20079;-66
2022/05/25 10:39:37;;;;;;;6.65;5.95;;;;;;;27.70;50.21;99987.09;4498495;31;20111;-66
2022/05/25 10:42:08;;;;;;;7.35;6.18;;;;;;;28.14;48.31;99992.22;4489830;31;20096;-65
2022/05/25 10:44:43;;;;;;;9.02;5.97;;;;;;;28.39;47.55;99985.44;4499649;31;20121;-66
2022/05/25 10:47:31;;;;;;;14.80;6.20;;;;;;;27.97;48.85;99983.78;4486782;31;20064;-66
2022/05/25 10:50:01;;;;;;;8.13;6.47;;;;;;;27.99;48.10;100003.47;4493206;31;20117;-65
2022/05/25 10:52:37;;;;;;;14.15;6.45;;;;;;;28.05;47.53;99986.63;4500237;31;20119;-66
2022/05/25 10:55:05;;;;;;;6.50;5.90;;;;;;;27.75;48.79;99990.28;4501920;31;20126;-66
2022/05/25 10:58:19;;;;;;;8.88;6.55;;;;;;;27.02;50.56;99983.22;4487009;31;20092;-66
2022/05/25 11:01:02;;;;;;;6.40;5.80;;;;;;;27.63;48.94;99978.69;4442745;31;20149;-65
2022/05/25 11:03:45;;;;;;;7.85;6.03;;;;;;;27.65;49.29;99973.13;4499040;31;20171;-65
2022/05/25 11:06:57;;;;;;;17.33;5.78;;;;;;;27.95;47.96;99980.38;4497791;31;20075;-65
2022/05/25 11:09:44;;;;;;;10.75;5.78;;;;;;;27.98;48.15;99980.06;4497436;31;20088;-65
2022/05/25 11:12:19;;;;;;;13.15;5.12;;;;;;;28.57;45.95;99984.56;4501337;31;20155;-65
2022/05/25 11:15:08;;;;;;;13.20;6.30;;;;;;;29.27;45.11;99984.31;4500233;31;20486;-65
2022/05/25 11:17:54;;;;;;;7.05;4.75;;;;;;;28.66;45.39;99985.56;4500380;31;20222;-65
2022/05/25 11:21:03;;;;;;;10.15;5.35;;;;;;;29.08;45.45;99987.94;4500870;31;20372;-65
2022/05/25 11:23:57;;;;;;;16.80;5.40;;;;;;;28.79;45.21;99993.37;4500017;31;20195;-65
2022/05/25 11:26:32;;;;;;;7.22;5.05;;;;;;;28.95;44.18;99990.94;4486118;31;20099;-66
2022/05/25 11:29:10;;;;;;;12.20;4.97;;;;;;;28.97;44.76;99997.06;4500374;31;20153;-66
2022/05/25 11:32:09;;;;;;;6.90;4.60;;;;;;;28.78;45.17;99992.53;4500462;31;20080;-66
2022/05/25 11:34:55;;;;;;;6.57;4.65;;;;;;;29.18;44.86;99987.91;4500850;31;20084;-66
2022/05/25 11:37:28;;;;;;;4.57;4.20;;;;;;;30.48;40.88;99991.38;4500327;31;20516;-66
2022/05/25 11:40:13;;;;;;;9.35;4.40;;;;;;;30.61;41.31;99993.72;4500046;31;20490;-65
2022/05/25 11:43:18;;;;;;;9.93;4.43;;;;;;;31.80;38.19;99994.81;4500096;31;20075;-66
2022/05/25 11:46:12;;;;;;;6.95;4.85;;;;;;;30.60;39.95;100001.03;4499839;31;20110;-66
2022/05/25 11:49:24;;;;;;;7.43;4.35;;;;;;;31.41;37.76;99989.03;4499843;31;20095;-66
2022/05/25 11:52:42;;;;;;;4.87;3.80;;;;;;;32.55;36.01;99983.97;4485257;31;20140;-66
2022/05/25 11:55:41;;;;;;;9.73;4.07;;;;;;;33.13;35.14;99987.53;4424775;32;20093;-66
2022/05/25 11:58:38;;;;;;;5.55;3.72;;;;;;;33.41;35.07;99987.13;4490946;31;20134;-66
2022/05/25 12:01:18;;;;;;;4.10;3.70;;;;;;;33.13;35.12;100000.34;4501089;31;20688;-66
2022/05/25 12:04:29;;;;;;;5.53;3.55;;;;;;;34.57;33.18;99983.66;4501131;31;20156;-66
2022/05/25 12:07:10;;;;;;;6.78;3.80;;;;;;;35.56;31.43;99987.16;4501841;31;20148;-66
2022/05/25 12:09:55;;;;;;;4.12;3.70;;;;;;;32.58;35.87;99989.09;4501884;31;20103;-66
2022/05/25 12:12:51;;;;;;;3.65;3.35;;;;;;;31.40;37.44;99990.06;4499026;31;80428;-66
2022/05/25 12:15:29;;;;;;;7.45;3.65;;;;;;;33.30;35.31;99988.34;4500066;31;20134;-66
2022/05/25 12:18:26;;;;;;;5.35;4.20;;;;;;;31.41;38.69;99991.75;4499294;31;20084;-66
2022/05/25 12:20:59;;;;;;;8.82;4.15;;;;;;;29.63;42.54;99995.34;4497403;31;20145;-66
2022/05/25 12:23:35;;;;;;;7.93;3.83;;;;;;;28.91;44.51;99997.66;4491978;31;20151;-66
2022/05/25 12:26:22;;;;;;;6.80;4.32;;;;;;;28.54;45.70;99990.28;4484294;31;20450;-66
2022/05/25 12:28:52;;;;;;;5.82;3.85;;;;;;;29.28;44.12;99991.47;4484656;31;20072;-66
2022/05/25 12:31:26;;;;;;;10.98;4.40;;;;;;;30.87;41.11;99999.22;4485648;31;20138;-66
2022/05/25 12:33:53;;;;;;;4.57;4.18;;;;;;;31.90;39.04;99992.84;4485642;31;20092;-66